Time;durP1;ratioP1;P1;durP2;ratioP2;P2;SDS_P1;SDS_P2;PMS_P1;PMS_P2;Temp;Humidity;BMP_temperature;BMP_pressure;BME280_temperature;BME280_humidity;BME280_pressure;Samples;Min_cycle;Max_cycle;Signal;HPM_P1;HPM_P2
2023/07/01 00:02:21;;;;;;;6.22;3.08;;;18.40;99.90;;;;;;5076846;28;20053;-65
2023/07/01 00:04:47;;;;;;;6.97;2.63;;;18.40;99.90;;;;;;5076736;28;20059;-64
2023/07/01 00:07:14;;;;;;;6.07;3.10;;;18.40;99.90;;;;;;5076423;28;20058;-64
2023/07/01 00:09:40;;;;;;;5.40;2.97;;;18.30;99.90;;;;;;5058807;28;20056;-65
2023/07/01 00:12:08;;;;;;;4.55;2.95;;;18.30;99.90;;;;;;5076643;28;20060;-65
2023/07/01 00:14:34;;;;;;;8.18;2.70;;;18.30;99.90;;;;;;5076550;28;20114;-63
2023/07/01 00:17:02;;;;;;;6.20;3.15;;;18.30;99.90;;;;;;5058945;28;20110;-64
2023/07/01 00:19:28;;;;;;;7.03;3.45;;;18.40;99.90;;;;;;5041863;28;20083;-65
2023/07/01 00:21:56;;;;;;;8.23;3.03;;;18.30;99.90;;;;;;5057731;28;20052;-64
2023/07/01 00:24:22;;;;;;;5.00;3.13;;;18.40;99.90;;;;;;5074972;28;20048;-65
2023/07/01 00:26:48;;;;;;;6.75;3.05;;;18.30;99.90;;;;;;5074557;28;20064;-64
2023/07/01 00:29:14;;;;;;;8.85;3.97;;;18.30;99.90;;;;;;5076043;28;20349;-65
2023/07/01 00:31:40;;;;;;;5.75;2.78;;;18.30;99.90;;;;;;5075477;28;20468;-65
2023/07/01 00:34:07;;;;;;;5.45;3.25;;;18.30;99.90;;;;;;5085706;28;20055;-65
2023/07/01 00:36:33;;;;;;;7.75;2.80;;;18.30;99.90;;;;;;5095196;28;20461;-64
2023/07/01 00:38:59;;;;;;;8.32;3.03;;;18.30;99.90;;;;;;5093717;28;20411;-64
2023/07/01 00:41:25;;;;;;;7.50;2.88;;;18.30;99.90;;;;;;5093863;28;20040;-65
2023/07/01 00:43:52;;;;;;;6.15;3.15;;;18.20;99.90;;;;;;5096113;28;20044;-65
2023/07/01 00:46:18;;;;;;;7.72;3.35;;;18.20;99.90;;;;;;5094418;28;20531;-65
2023/07/01 00:48:44;;;;;;;5.80;3.53;;;18.20;99.90;;;;;;5096265;28;20044;-64
2023/07/01 00:51:11;;;;;;;5.80;2.83;;;18.20;99.90;;;;;;5096211;28;20048;-65
2023/07/01 00:53:39;;;;;;;5.20;3.13;;;18.20;99.90;;;;;;5096166;28;20044;-65
2023/07/01 00:56:06;;;;;;;6.85;3.10;;;18.20;99.90;;;;;;5095792;28;20059;-64
2023/07/01 00:58:33;;;;;;;6.63;3.03;;;18.20;99.90;;;;;;5061163;28;20109;-65
2023/07/01 01:01:07;;;;;;;5.45;3.30;;;18.20;99.90;;;;;;5095794;28;20044;-66
2023/07/01 01:04:00;;;;;;;6.65;3.65;;;18.20;99.90;;;;;;5061423;28;20376;-64
2023/07/01 01:06:36;;;;;;;8.02;3.25;;;18.20;99.90;;;;;;5095905;28;20109;-64
2023/07/01 01:09:12;;;;;;;6.68;3.60;;;18.20;99.90;;;;;;5078027;28;20066;-64
2023/07/01 01:11:43;;;;;;;7.70;3.20;;;18.20;99.90;;;;;;5095669;28;20609;-64
2023/07/01 01:14:11;;;;;;;7.20;3.53;;;18.20;99.90;;;;;;5078148;28;20063;-64
2023/07/01 01:16:40;;;;;;;6.40;3.88;;;18.20;99.90;;;;;;5078048;28;20056;-64
2023/07/01 01:19:27;;;;;;;5.00;3.00;;;18.20;99.90;;;;;;5095103;28;20434;-64
2023/07/01 01:22:08;;;;;;;6.07;3.13;;;18.20;99.90;;;;;;5095301;28;20048;-64
2023/07/01 01:24:38;;;;;;;5.93;3.50;;;18.20;99.90;;;;;;5095628;28;20059;-64
2023/07/01 01:27:07;;;;;;;7.53;3.13;;;18.20;99.90;;;;;;5083551;28;20041;-64
2023/07/01 01:29:33;;;;;;;8.40;3.80;;;18.20;99.90;;;;;;5075196;28;20055;-63
2023/07/01 01:31:59;;;;;;;10.25;4.10;;;18.20;99.90;;;;;;5074904;28;20056;-63
2023/07/01 01:34:26;;;;;;;8.07;3.83;;;18.20;99.90;;;;;;5074361;28;20048;-63
2023/07/01 01:36:56;;;;;;;7.13;4.20;;;18.20;99.90;;;;;;5057334;28;20103;-63
2023/07/01 01:39:29;;;;;;;5.82;4.03;;;18.20;99.90;;;;;;5075139;28;20079;-63
2023/07/01 01:42:11;;;;;;;8.23;3.85;;;18.30;99.90;;;;;;5074923;28;20052;-63
2023/07/01 01:44:47;;;;;;;8.13;4.10;;;18.30;99.90;;;;;;5074403;28;20052;-63
2023/07/01 01:47:21;;;;;;;6.75;3.90;;;18.30;99.90;;;;;;5074931;28;20059;-63
2023/07/01 01:49:51;;;;;;;7.60;3.45;;;18.20;99.90;;;;;;5057360;28;20396;-63
2023/07/01 01:52:21;;;;;;;8.00;4.20;;;18.30;99.90;;;;;;5074934;28;20106;-63
2023/07/01 01:54:50;;;;;;;7.03;3.83;;;18.20;99.90;;;;;;5040321;28;20052;-63
2023/07/01 01:57:17;;;;;;;6.55;3.55;;;18.30;99.90;;;;;;5057331;28;20518;-63
2023/07/01 01:59:44;;;;;;;9.02;4.05;;;18.20;99.90;;;;;;5057328;28;20056;-64
2023/07/01 02:02:11;;;;;;;6.97;3.70;;;18.20;99.90;;;;;;5074597;28;20059;-63
2023/07/01 02:04:38;;;;;;;6.70;4.00;;;18.20;99.90;;;;;;5074788;28;20045;-63
2023/07/01 02:07:05;;;;;;;8.80;5.18;;;18.20;99.90;;;;;;5074349;28;20051;-63
2023/07/01 02:09:33;;;;;;;9.07;4.43;;;18.20;99.90;;;;;;5074762;28;20048;-63
2023/07/01 02:11:59;;;;;;;6.88;4.20;;;18.20;99.90;;;;;;5074718;28;20056;-64
2023/07/01 02:14:25;;;;;;;7.60;4.10;;;18.10;99.90;;;;;;5074611;28;20052;-64
2023/07/01 02:16:53;;;;;;;6.03;4.45;;;18.10;99.90;;;;;;5074552;28;20056;-64
2023/07/01 02:19:19;;;;;;;6.88;3.97;;;18.00;99.90;;;;;;5040049;28;20052;-64
2023/07/01 02:21:45;;;;;;;10.00;4.00;;;18.10;99.90;;;;;;5074336;28;20469;-64
2023/07/01 02:24:12;;;;;;;5.50;4.03;;;18.10;99.90;;;;;;5074204;28;20380;-64
2023/07/01 02:26:39;;;;;;;8.20;3.83;;;18.00;99.90;;;;;;5056949;28;20056;-63
2023/07/01 02:29:05;;;;;;;5.82;4.07;;;18.00;99.90;;;;;;5074167;28;20618;-64
2023/07/01 02:31:32;;;;;;;7.85;3.95;;;17.90;99.90;;;;;;5074058;28;20055;-64
2023/07/01 02:34:02;;;;;;;9.23;4.20;;;17.90;99.90;;;;;;5082589;28;20468;-64
2023/07/01 02:36:29;;;;;;;6.50;4.00;;;17.80;99.90;;;;;;5094400;28;20048;-64
2023/07/01 02:38:56;;;;;;;6.15;4.38;;;17.70;99.90;;;;;;5094710;28;20067;-64
2023/07/01 02:41:22;;;;;;;9.55;3.95;;;17.70;99.90;;;;;;5094596;28;20444;-64
2023/07/01 02:43:49;;;;;;;6.57;4.25;;;17.60;99.90;;;;;;5094180;28;20052;-64
2023/07/01 02:46:15;;;;;;;6.13;4.30;;;17.60;99.90;;;;;;5094599;28;20040;-64
2023/07/01 02:48:41;;;;;;;8.15;4.60;;;17.50;99.90;;;;;;5094617;28;20048;-64
2023/07/01 02:51:08;;;;;;;6.65;3.90;;;17.50;99.90;;;;;;5094475;28;20109;-64
2023/07/01 02:53:34;;;;;;;7.38;4.40;;;17.50;99.90;;;;;;5076343;28;20117;-63
2023/07/01 02:56:02;;;;;;;6.72;4.15;;;17.50;99.90;;;;;;5094161;28;20058;-64
2023/07/01 02:58:28;;;;;;;5.35;3.88;;;17.60;99.90;;;;;;5076802;28;20423;-64
2023/07/01 03:00:54;;;;;;;5.22;3.75;;;17.60;99.90;;;;;;5093905;28;20396;-64
2023/07/01 03:03:21;;;;;;;7.70;3.75;;;17.60;99.90;;;;;;5094062;28;20051;-63
2023/07/01 03:05:47;;;;;;;5.85;3.17;;;17.60;99.90;;;;;;5094312;28;20044;-64
2023/07/01 03:08:13;;;;;;;7.57;4.03;;;17.60;99.90;;;;;;5094417;28;20048;-64
2023/07/01 03:10:40;;;;;;;5.68;3.33;;;17.60;99.90;;;;;;5080659;28;20066;-64
2023/07/01 03:13:07;;;;;;;6.32;3.50;;;17.60;99.90;;;;;;5098161;28;20367;-64
2023/07/01 03:15:33;;;;;;;6.18;3.13;;;17.60;99.90;;;;;;5098502;28;20044;-64
2023/07/01 03:18:00;;;;;;;7.55;3.67;;;17.60;99.90;;;;;;5098719;28;20044;-64
2023/07/01 03:20:26;;;;;;;6.13;3.88;;;17.50;99.90;;;;;;5098494;28;20418;-64
2023/07/01 03:22:54;;;;;;;6.10;3.40;;;17.50;99.90;;;;;;5098259;28;20056;-64
2023/07/01 03:25:20;;;;;;;6.53;3.88;;;17.50;99.90;;;;;;5098277;28;20054;-63
2023/07/01 03:27:47;;;;;;;7.25;4.32;;;17.50;99.90;;;;;;5097637;28;20147;-64
2023/07/01 03:30:15;;;;;;;4.60;4.10;;;17.50;99.90;;;;;;5097504;28;20464;-64
2023/07/01 03:32:42;;;;;;;6.53;4.30;;;17.50;99.90;;;;;;5097678;28;20062;-64
2023/07/01 03:35:09;;;;;;;7.80;4.40;;;17.40;99.90;;;;;;5097204;28;20492;-64
2023/07/01 03:37:37;;;;;;;5.75;4.28;;;17.30;99.90;;;;;;5097566;28;20063;-63
2023/07/01 03:40:10;;;;;;;6.32;4.40;;;17.20;99.90;;;;;;5079776;28;20048;-64
2023/07/01 03:42:40;;;;;;;8.48;4.20;;;17.20;99.90;;;;;;5097441;28;20055;-64
2023/07/01 03:45:10;;;;;;;7.15;4.78;;;17.20;99.90;;;;;;5097280;28;20044;-65
2023/07/01 03:47:42;;;;;;;7.32;5.30;;;17.20;99.90;;;;;;5078769;28;20062;-64
2023/07/01 03:50:09;;;;;;;6.63;5.22;;;17.20;99.90;;;;;;5061959;28;20048;-64
2023/07/01 03:52:37;;;;;;;9.07;4.25;;;17.10;99.90;;;;;;5079249;28;20407;-64
2023/07/01 03:55:05;;;;;;;6.53;4.55;;;17.10;99.90;;;;;;5079818;28;20048;-64
2023/07/01 03:57:35;;;;;;;7.68;4.68;;;17.00;99.90;;;;;;5097339;28;20056;-64
2023/07/01 04:00:08;;;;;;;5.97;4.10;;;17.00;99.90;;;;;;5098117;28;20044;-64
2023/07/01 04:02:37;;;;;;;5.22;4.35;;;17.00;99.90;;;;;;5097471;28;20048;-64
2023/07/01 04:05:10;;;;;;;8.88;4.70;;;17.00;99.90;;;;;;5096553;28;20051;-64
2023/07/01 04:07:40;;;;;;;7.95;4.25;;;17.00;99.90;;;;;;5096764;28;20044;-64
2023/07/01 04:10:08;;;;;;;5.75;3.75;;;17.00;99.90;;;;;;5097245;28;20047;-64
2023/07/01 04:12:36;;;;;;;9.27;4.03;;;17.10;99.90;;;;;;5079285;28;20055;-64
2023/07/01 04:15:03;;;;;;;5.65;4.20;;;17.00;99.90;;;;;;5096922;28;20066;-63
2023/07/01 04:17:29;;;;;;;6.80;4.93;;;17.00;99.90;;;;;;5078420;28;20063;-63
2023/07/01 04:19:56;;;;;;;7.22;3.85;;;17.00;99.90;;;;;;5095567;28;20097;-63
2023/07/01 04:22:23;;;;;;;6.13;4.57;;;17.00;99.90;;;;;;5096249;28;20044;-63
2023/07/01 04:24:50;;;;;;;5.75;4.50;;;16.90;99.90;;;;;;5078593;28;20063;-63
2023/07/01 04:27:16;;;;;;;12.18;4.63;;;17.00;99.90;;;;;;5096147;28;20538;-63
2023/07/01 04:29:43;;;;;;;8.57;4.30;;;16.90;99.90;;;;;;5078664;28;20048;-64
2023/07/01 04:32:09;;;;;;;7.03;4.53;;;16.90;99.90;;;;;;5078438;28;20052;-63
2023/07/01 04:34:37;;;;;;;6.25;4.43;;;16.90;99.90;;;;;;5095785;28;20116;-63
2023/07/01 04:37:03;;;;;;;6.28;4.72;;;16.80;99.90;;;;;;5096392;28;20133;-63
2023/07/01 04:39:30;;;;;;;8.63;4.40;;;16.80;99.90;;;;;;5096103;28;20064;-64
2023/07/01 04:41:56;;;;;;;6.65;4.82;;;16.80;99.90;;;;;;5096369;28;20072;-63
2023/07/01 04:44:24;;;;;;;7.28;4.30;;;16.80;99.90;;;;;;5096626;28;20055;-63
2023/07/01 04:46:51;;;;;;;7.38;4.65;;;16.80;99.90;;;;;;5078307;28;20039;-63
2023/07/01 04:49:17;;;;;;;7.05;3.97;;;16.80;99.90;;;;;;5078721;28;20040;-63
2023/07/01 04:51:43;;;;;;;8.35;4.97;;;16.90;99.90;;;;;;5095155;28;20059;-63
2023/07/01 04:54:10;;;;;;;9.10;4.82;;;16.90;99.90;;;;;;5095971;28;20066;-64
2023/07/01 04:56:36;;;;;;;7.13;4.85;;;16.90;99.90;;;;;;5078313;28;20109;-63
2023/07/01 04:59:03;;;;;;;5.97;3.90;;;16.90;99.90;;;;;;5095875;28;20059;-62
2023/07/01 05:01:30;;;;;;;5.65;4.07;;;17.00;99.90;;;;;;5077846;28;20380;-63
2023/07/01 05:03:56;;;;;;;7.68;4.93;;;17.00;99.90;;;;;;5095796;28;20051;-64
2023/07/01 05:06:23;;;;;;;7.70;4.70;;;17.00;99.90;;;;;;5075409;28;20051;-64
2023/07/01 05:08:50;;;;;;;6.82;4.75;;;17.10;99.90;;;;;;5095980;28;20048;-63
2023/07/01 05:11:16;;;;;;;5.70;4.13;;;17.00;99.90;;;;;;5077896;28;20117;-64
2023/07/01 05:13:44;;;;;;;7.10;4.93;;;17.00;99.90;;;;;;5095642;28;20062;-64
2023/07/01 05:16:11;;;;;;;8.45;4.75;;;17.10;99.90;;;;;;5077953;28;20422;-64
2023/07/01 05:18:37;;;;;;;6.40;4.50;;;17.20;99.90;;;;;;5095513;28;20062;-64
2023/07/01 05:21:05;;;;;;;6.63;4.55;;;17.20;99.90;;;;;;5095381;28;20414;-64
2023/07/01 05:23:31;;;;;;;5.88;4.75;;;17.20;99.90;;;;;;5077687;28;20121;-64
2023/07/01 05:25:58;;;;;;;5.75;4.15;;;17.20;99.90;;;;;;5077868;28;20048;-64
2023/07/01 05:28:27;;;;;;;6.45;4.78;;;17.30;99.90;;;;;;5095668;28;20051;-64
2023/07/01 05:30:53;;;;;;;8.52;4.38;;;17.30;99.90;;;;;;5077606;28;20432;-63
2023/07/01 05:33:19;;;;;;;7.35;4.80;;;17.30;99.90;;;;;;5076836;28;20055;-64
2023/07/01 05:35:45;;;;;;;6.32;4.50;;;17.40;99.90;;;;;;5093945;28;20052;-64
2023/07/01 05:38:13;;;;;;;6.00;4.72;;;17.40;99.90;;;;;;5095429;28;20504;-64
2023/07/01 05:40:39;;;;;;;5.80;5.10;;;17.40;99.90;;;;;;5095350;28;20048;-64
2023/07/01 05:43:06;;;;;;;9.43;5.57;;;17.40;99.90;;;;;;5095102;28;20044;-64
2023/07/01 05:45:32;;;;;;;7.68;5.45;;;17.30;99.90;;;;;;5077342;28;20055;-65
2023/07/01 05:47:58;;;;;;;6.93;5.32;;;17.30;99.90;;;;;;5094539;28;20066;-64
2023/07/01 05:50:25;;;;;;;8.30;5.45;;;17.20;99.90;;;;;;5093720;28;20380;-65
2023/07/01 05:52:51;;;;;;;8.65;5.65;;;17.20;99.90;;;;;;5095089;28;20097;-65
2023/07/01 05:55:17;;;;;;;7.53;5.75;;;17.10;99.90;;;;;;5094918;28;20048;-64
2023/07/01 05:57:43;;;;;;;6.53;5.78;;;17.10;99.90;;;;;;5095046;28;20063;-65
2023/07/01 06:00:13;;;;;;;9.27;5.60;;;17.10;99.90;;;;;;5094816;28;20209;-64
2023/07/01 06:02:40;;;;;;;6.68;5.80;;;17.00;99.90;;;;;;5094677;28;20059;-64
2023/07/01 06:05:11;;;;;;;6.80;5.82;;;17.00;99.90;;;;;;5076197;28;20060;-65
2023/07/01 06:07:38;;;;;;;7.90;5.20;;;16.90;99.90;;;;;;5093517;28;20043;-65
2023/07/01 06:10:05;;;;;;;6.50;5.78;;;16.90;99.90;;;;;;5094679;28;20058;-65
2023/07/01 06:12:31;;;;;;;6.82;5.53;;;16.90;99.90;;;;;;5094640;28;20048;-65
2023/07/01 06:14:59;;;;;;;6.53;5.05;;;16.80;99.90;;;;;;5094798;28;20048;-65
2023/07/01 06:17:26;;;;;;;10.20;5.93;;;16.90;99.90;;;;;;5075140;28;20048;-65
2023/07/01 06:19:52;;;;;;;7.85;6.05;;;16.80;99.90;;;;;;5094550;28;20059;-65
2023/07/01 06:22:18;;;;;;;9.10;5.85;;;16.80;99.90;;;;;;5094283;28;20346;-65
2023/07/01 06:24:44;;;;;;;8.05;5.82;;;16.80;99.90;;;;;;5077069;28;20077;-65
2023/07/01 06:27:11;;;;;;;9.20;6.35;;;16.70;99.90;;;;;;5094554;28;20067;-65
2023/07/01 06:29:37;;;;;;;8.10;6.18;;;16.80;99.90;;;;;;5094680;28;20048;-65
2023/07/01 06:32:04;;;;;;;6.43;5.78;;;16.80;99.90;;;;;;5076549;28;20449;-65
2023/07/01 06:34:30;;;;;;;7.72;6.65;;;16.80;99.90;;;;;;5076097;28;20062;-65
2023/07/01 06:36:56;;;;;;;8.05;6.97;;;16.80;99.90;;;;;;5094362;28;20048;-65
2023/07/01 06:39:22;;;;;;;7.57;6.03;;;16.80;99.90;;;;;;5094532;28;20056;-65
2023/07/01 06:41:49;;;;;;;7.32;6.57;;;16.90;99.90;;;;;;5094591;28;20052;-65
2023/07/01 06:44:15;;;;;;;7.95;6.18;;;16.90;99.90;;;;;;5096040;28;20040;-65
2023/07/01 06:46:42;;;;;;;7.82;5.97;;;16.90;99.90;;;;;;5080469;28;20444;-66
2023/07/01 06:49:10;;;;;;;8.90;6.78;;;16.90;99.90;;;;;;5098277;28;20444;-66
2023/07/01 06:51:37;;;;;;;9.75;7.35;;;17.00;99.90;;;;;;5098426;28;20058;-65
2023/07/01 06:54:04;;;;;;;9.35;7.32;;;17.10;99.90;;;;;;5076581;28;20051;-65
2023/07/01 06:56:30;;;;;;;7.60;6.45;;;17.00;99.90;;;;;;5078786;28;20429;-66
2023/07/01 06:58:56;;;;;;;7.35;6.53;;;17.00;99.90;;;;;;5098309;28;20048;-66
2023/07/01 07:01:23;;;;;;;7.70;6.07;;;17.00;99.90;;;;;;5073916;28;20049;-66
2023/07/01 07:03:49;;;;;;;10.10;6.85;;;17.00;99.90;;;;;;5077667;28;20048;-66
2023/07/01 07:06:15;;;;;;;7.80;6.72;;;17.00;99.90;;;;;;5096785;28;20044;-66
2023/07/01 07:08:41;;;;;;;7.25;6.30;;;17.00;99.90;;;;;;5083596;28;20059;-66
2023/07/01 07:11:08;;;;;;;8.43;7.22;;;17.00;99.90;;;;;;5093488;28;20037;-66
2023/07/01 07:13:34;;;;;;;7.60;6.80;;;17.20;99.90;;;;;;5077658;28;20048;-65
2023/07/01 07:16:00;;;;;;;9.95;6.38;;;17.10;99.90;;;;;;5059391;28;20048;-66
2023/07/01 07:18:27;;;;;;;7.78;6.97;;;17.10;99.90;;;;;;5061158;28;20048;-66
2023/07/01 07:20:53;;;;;;;8.48;6.40;;;17.20;99.90;;;;;;5083936;28;20060;-65
2023/07/01 07:23:19;;;;;;;7.70;6.90;;;17.20;99.90;;;;;;5080071;28;20040;-66
2023/07/01 07:25:45;;;;;;;7.60;6.80;;;17.30;99.90;;;;;;5097619;28;20056;-66
2023/07/01 07:28:12;;;;;;;7.80;7.10;;;17.30;99.90;;;;;;5091432;28;20127;-67
2023/07/01 07:30:39;;;;;;;9.30;6.93;;;17.30;99.90;;;;;;5093612;28;20535;-66
2023/07/01 07:33:07;;;;;;;7.50;6.75;;;17.40;99.90;;;;;;5082954;28;20051;-67
2023/07/01 07:35:33;;;;;;;7.05;6.32;;;17.30;99.90;;;;;;5073380;28;20048;-67
2023/07/01 07:37:59;;;;;;;9.13;7.28;;;17.40;99.90;;;;;;5093626;28;20040;-66
2023/07/01 07:40:26;;;;;;;6.07;5.47;;;17.40;99.90;;;;;;5062276;28;20048;-67
2023/07/01 07:42:55;;;;;;;6.97;5.38;;;17.40;99.90;;;;;;5091133;28;20097;-66
2023/07/01 07:45:22;;;;;;;6.70;5.82;;;17.40;99.90;;;;;;5084475;28;20461;-66
2023/07/01 07:47:48;;;;;;;7.22;6.07;;;17.50;99.90;;;;;;5072953;28;20048;-66
2023/07/01 07:50:21;;;;;;;7.40;6.70;;;17.50;99.90;;;;;;5078839;28;20056;-67
2023/07/01 07:52:47;;;;;;;6.30;5.60;;;17.40;99.90;;;;;;5096406;28;20105;-67
2023/07/01 07:55:14;;;;;;;7.82;6.05;;;17.50;99.90;;;;;;5078504;28;20391;-67
2023/07/01 07:57:40;;;;;;;6.50;4.93;;;17.40;99.90;;;;;;5078858;28;20143;-66
2023/07/01 08:00:08;;;;;;;9.73;6.10;;;17.40;99.90;;;;;;5079010;28;20052;-66
2023/07/01 08:02:38;;;;;;;6.18;5.40;;;17.50;99.90;;;;;;5078784;28;20052;-66
2023/07/01 08:05:05;;;;;;;6.97;6.28;;;17.50;99.90;;;;;;5079208;28;20052;-66
2023/07/01 08:07:34;;;;;;;7.22;6.32;;;17.60;99.90;;;;;;5097418;28;20127;-66
2023/07/01 08:10:00;;;;;;;7.90;6.18;;;17.60;99.90;;;;;;5096581;28;20427;-66
2023/07/01 08:12:26;;;;;;;6.43;5.72;;;17.70;99.90;;;;;;5096941;28;20066;-66
2023/07/01 08:14:53;;;;;;;7.15;6.32;;;17.70;99.90;;;;;;5078719;28;20056;-66
2023/07/01 08:17:19;;;;;;;7.28;6.25;;;17.60;99.90;;;;;;5078432;28;20411;-66
2023/07/01 08:19:45;;;;;;;6.47;5.88;;;17.60;99.90;;;;;;5078509;28;20048;-66
2023/07/01 08:22:12;;;;;;;7.32;6.63;;;17.60;99.90;;;;;;5078804;28;20082;-66
2023/07/01 08:24:38;;;;;;;7.72;6.65;;;17.70;99.90;;;;;;5095896;28;20047;-67
2023/07/01 08:27:04;;;;;;;6.90;6.30;;;17.70;99.90;;;;;;5095913;28;20063;-67
2023/07/01 08:29:31;;;;;;;6.78;6.07;;;17.80;99.90;;;;;;5096226;28;20044;-67
2023/07/01 08:31:59;;;;;;;7.85;7.05;;;17.90;99.90;;;;;;5076873;28;20044;-66
2023/07/01 08:34:25;;;;;;;6.07;5.35;;;17.90;99.90;;;;;;5095332;28;20101;-66
2023/07/01 08:36:51;;;;;;;8.77;6.30;;;17.90;99.90;;;;;;5096003;28;20070;-65
2023/07/01 08:39:17;;;;;;;7.55;6.32;;;17.90;99.90;;;;;;5096140;28;20105;-66
2023/07/01 08:41:53;;;;;;;7.82;7.03;;;18.00;99.90;;;;;;5077982;28;20048;-67
2023/07/01 08:44:21;;;;;;;7.15;6.25;;;18.00;99.90;;;;;;5096423;28;20456;-66
2023/07/01 08:46:52;;;;;;;7.55;6.85;;;17.90;99.90;;;;;;5077808;28;20044;-66
2023/07/01 08:49:21;;;;;;;;;;;18.00;99.90;;;;;;5078785;28;20122;-66
2023/07/01 08:51:51;;;;;;;7.13;5.45;;;18.10;99.90;;;;;;5096578;28;20294;-66
2023/07/01 08:54:18;;;;;;;7.32;5.95;;;18.00;99.90;;;;;;5062675;28;20063;-66
2023/07/01 08:56:48;;;;;;;7.55;5.90;;;18.00;99.90;;;;;;5096902;28;20048;-66
2023/07/01 08:59:14;;;;;;;7.90;6.88;;;18.00;99.90;;;;;;5077933;28;20058;-66
2023/07/01 09:01:43;;;;;;;7.15;6.43;;;18.20;99.90;;;;;;5095977;28;20056;-66
2023/07/01 09:04:10;;;;;;;7.20;6.47;;;18.10;99.90;;;;;;5095660;28;20067;-66
2023/07/01 09:06:36;;;;;;;6.63;5.93;;;18.20;99.90;;;;;;5077579;28;20040;-66
2023/07/01 09:09:03;;;;;;;7.50;6.80;;;18.20;99.90;;;;;;5077750;28;20120;-66
2023/07/01 09:11:29;;;;;;;6.70;6.10;;;18.20;99.90;;;;;;5095714;28;20040;-66
2023/07/01 09:13:56;;;;;;;8.10;7.32;;;18.20;99.90;;;;;;5061023;28;20093;-66
2023/07/01 09:16:36;;;;;;;7.03;6.32;;;18.30;99.90;;;;;;5095431;28;20043;-66
2023/07/01 09:19:06;;;;;;;6.82;5.95;;;18.40;99.90;;;;;;5076699;28;20044;-66
2023/07/01 09:21:33;;;;;;;7.88;7.07;;;18.40;99.90;;;;;;5061305;28;20059;-66
2023/07/01 09:24:00;;;;;;;7.13;5.95;;;18.40;99.90;;;;;;5095441;28;20109;-66
2023/07/01 09:26:30;;;;;;;7.55;6.85;;;18.40;99.90;;;;;;5077724;28;20120;-66
2023/07/01 09:28:57;;;;;;;7.60;6.55;;;18.40;99.90;;;;;;5061300;28;20048;-66
2023/07/01 09:31:25;;;;;;;7.20;6.50;;;18.40;99.90;;;;;;5076932;28;20051;-66
2023/07/01 09:34:02;;;;;;;7.25;6.55;;;18.50;99.90;;;;;;5087265;28;20071;-66
2023/07/01 09:36:30;;;;;;;6.35;5.75;;;18.50;99.90;;;;;;5057419;28;20389;-66
2023/07/01 09:38:56;;;;;;;7.15;6.40;;;18.50;99.90;;;;;;5074706;28;20366;-66
2023/07/01 09:41:26;;;;;;;7.15;6.45;;;18.50;99.90;;;;;;5057004;28;20048;-66
2023/07/01 09:43:54;;;;;;;6.68;6.03;;;18.50;99.90;;;;;;5074863;28;20056;-66
2023/07/01 09:46:22;;;;;;;6.60;5.57;;;18.50;99.90;;;;;;5074751;28;20114;-66
2023/07/01 09:48:52;;;;;;;7.18;6.32;;;18.60;99.90;;;;;;5056798;28;20121;-66
2023/07/01 09:51:19;;;;;;;7.80;6.97;;;18.70;99.90;;;;;;5073833;28;20144;-66
2023/07/01 09:53:45;;;;;;;6.90;6.18;;;18.60;99.90;;;;;;5057268;28;20359;-66
2023/07/01 09:56:15;;;;;;;7.80;6.47;;;18.70;99.90;;;;;;5074803;28;20056;-66
2023/07/01 09:58:42;;;;;;;7.30;6.55;;;18.70;99.90;;;;;;5037128;28;20376;-66
2023/07/01 10:01:11;;;;;;;8.02;7.22;;;18.60;99.90;;;;;;5054695;28;20472;-66
2023/07/01 10:03:38;;;;;;;7.28;6.15;;;18.80;99.90;;;;;;5037406;28;20063;-66
2023/07/01 10:06:05;;;;;;;6.88;5.95;;;18.80;99.90;;;;;;5052973;28;20045;-65
2023/07/01 10:08:31;;;;;;;7.63;6.53;;;18.90;99.90;;;;;;5055999;28;20040;-66
2023/07/01 10:11:13;;;;;;;6.47;5.88;;;18.90;99.90;;;;;;5039983;28;20049;-66
2023/07/01 10:13:54;;;;;;;6.47;5.78;;;18.90;99.90;;;;;;5056847;28;20052;-65
2023/07/01 10:16:21;;;;;;;6.75;6.05;;;18.90;99.90;;;;;;5074098;28;20395;-65
2023/07/01 10:18:47;;;;;;;7.20;5.75;;;18.90;99.90;;;;;;5073441;28;20052;-66
2023/07/01 10:21:23;;;;;;;8.52;7.05;;;18.90;99.90;;;;;;5043487;28;20408;-66
2023/07/01 10:23:50;;;;;;;6.82;6.13;;;19.00;99.90;;;;;;5054405;28;20125;-65
2023/07/01 10:26:36;;;;;;;7.03;6.32;;;19.10;99.90;;;;;;5055009;28;20045;-65
2023/07/01 10:29:33;;;;;;;7.55;5.75;;;19.10;99.90;;;;;;5056668;28;20105;-65
2023/07/01 10:32:08;;;;;;;6.68;5.68;;;19.10;99.90;;;;;;5056125;28;20045;-66
2023/07/01 10:34:53;;;;;;;7.05;5.50;;;19.20;99.90;;;;;;5067198;28;20067;-66
2023/07/01 10:37:20;;;;;;;6.88;5.47;;;19.20;99.90;;;;;;5056422;28;20127;-64
2023/07/01 10:39:46;;;;;;;6.55;5.82;;;19.20;99.90;;;;;;5074417;28;20113;-64
2023/07/01 10:42:32;;;;;;;6.55;5.85;;;19.20;99.90;;;;;;5075647;28;20056;-65
2023/07/01 10:45:10;;;;;;;6.10;5.40;;;19.20;99.90;;;;;;5094515;28;20048;-65
2023/07/01 10:47:48;;;;;;;6.20;5.15;;;19.30;99.90;;;;;;5076299;28;20039;-66
2023/07/01 10:50:19;;;;;;;5.88;5.25;;;19.20;99.90;;;;;;5059881;28;20059;-66
2023/07/01 10:53:03;;;;;;;6.90;6.20;;;19.20;99.90;;;;;;5074226;28;20457;-65
2023/07/01 10:55:33;;;;;;;6.05;5.38;;;19.30;99.90;;;;;;5074078;28;20109;-66
2023/07/01 10:58:28;;;;;;;6.15;5.55;;;19.10;99.90;;;;;;5086583;28;20051;-66
2023/07/01 11:00:58;;;;;;;6.78;5.35;;;19.10;99.90;;;;;;5075928;28;20056;-66
2023/07/01 11:03:36;;;;;;;7.03;5.65;;;19.30;99.90;;;;;;5081718;28;20056;-65
2023/07/01 11:06:04;;;;;;;5.07;4.57;;;19.40;99.90;;;;;;5088897;28;20052;-66
2023/07/01 11:08:34;;;;;;;4.35;3.92;;;19.60;99.90;;;;;;5076232;28;20056;-65
2023/07/01 11:11:00;;;;;;;5.15;4.65;;;19.60;99.90;;;;;;5094649;28;20070;-66
2023/07/01 11:13:26;;;;;;;4.93;4.30;;;19.70;99.90;;;;;;5094160;28;20048;-65
2023/07/01 11:16:06;;;;;;;4.80;3.67;;;19.70;99.90;;;;;;5094278;28;20044;-65
2023/07/01 11:18:42;;;;;;;6.38;4.20;;;19.70;99.90;;;;;;5076465;28;20105;-65
2023/07/01 11:21:14;;;;;;;5.55;4.18;;;19.60;99.90;;;;;;5075786;28;20139;-66
2023/07/01 11:23:42;;;;;;;5.72;5.13;;;19.70;99.90;;;;;;5075339;28;20055;-66
2023/07/01 11:26:17;;;;;;;6.20;4.90;;;19.60;99.90;;;;;;5055597;28;20041;-66
2023/07/01 11:28:44;;;;;;;5.95;4.80;;;19.70;99.90;;;;;;5069669;28;20045;-64
2023/07/01 11:31:18;;;;;;;4.90;3.67;;;19.60;99.90;;;;;;5058869;28;20067;-65
2023/07/01 11:33:52;;;;;;;4.70;3.85;;;19.60;99.90;;;;;;5082085;28;20047;-64
2023/07/01 11:36:43;;;;;;;3.25;2.95;;;19.60;99.90;;;;;;5097724;28;20048;-65
2023/07/01 11:39:15;;;;;;;4.25;3.45;;;19.50;99.90;;;;;;5076831;28;20358;-64
2023/07/01 11:41:43;;;;;;;4.18;3.45;;;19.50;99.90;;;;;;5077285;28;20052;-65
2023/07/01 11:44:13;;;;;;;5.20;3.78;;;19.60;99.90;;;;;;5059615;28;20044;-65
2023/07/01 11:46:41;;;;;;;5.38;3.92;;;19.60;99.90;;;;;;5062153;28;20055;-64
2023/07/01 11:49:16;;;;;;;6.28;4.47;;;19.60;99.90;;;;;;5097682;28;20047;-66
2023/07/01 11:51:48;;;;;;;5.53;4.40;;;19.50;99.90;;;;;;5097335;28;20372;-65
2023/07/01 11:54:16;;;;;;;5.90;4.38;;;19.50;99.90;;;;;;5095086;28;20059;-65
2023/07/01 11:56:46;;;;;;;5.70;4.53;;;19.60;99.90;;;;;;5087526;28;20087;-65
2023/07/01 11:59:29;;;;;;;5.13;4.45;;;19.60;99.90;;;;;;5096749;28;20109;-66
2023/07/01 12:01:55;;;;;;;4.75;3.85;;;19.40;99.90;;;;;;5096798;28;20051;-65
2023/07/01 12:04:23;;;;;;;5.13;4.05;;;19.40;99.90;;;;;;5096449;28;20039;-65
2023/07/01 12:06:50;;;;;;;5.93;4.28;;;19.30;99.90;;;;;;5078083;28;20071;-66
2023/07/01 12:09:29;;;;;;;6.05;4.57;;;19.30;99.90;;;;;;5096340;28;20040;-65
2023/07/01 12:11:55;;;;;;;7.70;4.70;;;19.40;99.90;;;;;;5086454;28;20070;-65
2023/07/01 12:14:23;;;;;;;7.95;5.25;;;19.40;99.90;;;;;;5076419;28;20052;-65
2023/07/01 12:16:50;;;;;;;7.10;6.03;;;19.30;99.90;;;;;;5080124;28;20055;-65
2023/07/01 12:19:18;;;;;;;7.38;5.07;;;19.40;99.90;;;;;;5096186;28;20048;-65
2023/07/01 12:21:45;;;;;;;7.32;5.28;;;19.40;99.90;;;;;;5101320;28;20048;-65
2023/07/01 12:24:23;;;;;;;6.97;5.22;;;19.50;99.90;;;;;;5115967;28;20048;-65
2023/07/01 12:26:51;;;;;;;8.00;6.28;;;19.60;99.90;;;;;;5112757;28;20048;-65
2023/07/01 12:29:18;;;;;;;7.20;5.57;;;19.50;99.90;;;;;;5098855;28;20092;-66
2023/07/01 12:31:45;;;;;;;8.65;6.30;;;19.60;99.90;;;;;;5115288;28;20051;-65
2023/07/01 12:34:11;;;;;;;8.05;6.20;;;19.70;99.90;;;;;;5095205;28;20113;-66
2023/07/01 12:36:38;;;;;;;7.88;6.50;;;19.80;99.90;;;;;;5095147;28;20139;-65
2023/07/01 12:39:06;;;;;;;7.45;6.35;;;19.90;99.90;;;;;;5095365;28;20056;-66
2023/07/01 12:41:36;;;;;;;9.57;6.82;;;20.00;99.90;;;;;;5075904;28;20162;-66
2023/07/01 12:44:04;;;;;;;9.68;6.60;;;20.10;99.90;;;;;;5094965;28;20434;-65
2023/07/01 12:46:34;;;;;;;9.45;6.40;;;20.20;99.90;;;;;;5095034;28;20052;-65
2023/07/01 12:49:00;;;;;;;9.45;6.63;;;20.10;99.90;;;;;;5095816;28;20052;-65
2023/07/01 12:51:27;;;;;;;7.72;5.82;;;20.00;99.90;;;;;;5094676;28;20055;-65
2023/07/01 12:53:58;;;;;;;5.03;4.53;;;19.90;99.90;;;;;;5094484;28;20044;-65
2023/07/01 12:56:25;;;;;;;4.93;4.03;;;19.70;99.90;;;;;;5094696;28;20414;-65